createdAt,value
2023-01-12T00:01:52.184Z,76.75
2023-01-12T00:04:19.319Z,76.59
2023-01-12T00:06:46.447Z,76.54
2023-01-12T00:09:14.056Z,76.48
2023-01-12T00:11:41.243Z,76.50
2023-01-12T00:14:09.154Z,76.41
2023-01-12T00:16:41.155Z,76.39
2023-01-12T00:19:13.384Z,76.06
2023-01-12T00:22:13.262Z,75.96
2023-01-12T00:24:46.408Z,76.16
2023-01-12T00:27:16.208Z,76.13
2023-01-12T00:29:43.266Z,76.04
2023-01-12T00:32:16.828Z,75.92
2023-01-12T00:34:44.083Z,75.86
2023-01-12T00:37:13.106Z,76.11
2023-01-12T00:39:45.975Z,76.11
2023-01-12T00:42:42.836Z,75.97
2023-01-12T00:45:22.670Z,76.01
2023-01-12T00:47:49.989Z,76.12
2023-01-12T00:50:19.358Z,76.12
2023-01-12T00:52:46.727Z,76.15
2023-01-12T00:55:13.720Z,76.44
2023-01-12T00:57:40.688Z,76.34
2023-01-12T01:00:08.502Z,76.22
2023-01-12T01:02:35.697Z,76.19
2023-01-12T01:05:02.749Z,76.25
2023-01-12T01:07:29.750Z,76.52
2023-01-12T01:09:56.812Z,76.36
2023-01-12T01:12:23.841Z,76.32
2023-01-12T01:14:51.049Z,76.34
2023-01-12T01:17:18.026Z,76.43
2023-01-12T01:19:45.489Z,76.29
2023-01-12T01:22:15.359Z,76.46
2023-01-12T01:24:42.211Z,76.45
2023-01-12T01:27:09.559Z,76.30
2023-01-12T01:29:36.742Z,76.27
2023-01-12T01:32:03.944Z,76.55
2023-01-12T01:34:30.936Z,76.25
2023-01-12T01:36:59.377Z,76.30
2023-01-12T01:39:26.381Z,76.34
2023-01-12T01:41:53.562Z,76.53
2023-01-12T01:44:49.292Z,76.44
2023-01-12T01:47:29.015Z,76.46
2023-01-12T01:49:59.649Z,76.39
2023-01-12T01:52:35.967Z,76.46
2023-01-12T01:55:11.305Z,76.52
2023-01-12T01:58:12.406Z,76.45
2023-01-12T02:00:42.310Z,76.45
2023-01-12T02:03:11.966Z,76.46
2023-01-12T02:05:44.292Z,76.50
2023-01-12T02:08:28.967Z,76.33
2023-01-12T02:10:57.887Z,76.60
2023-01-12T02:13:50.668Z,76.28
2023-01-12T02:16:25.881Z,76.29
2023-01-12T02:19:32.523Z,76.29
2023-01-12T02:22:38.206Z,76.37
2023-01-12T02:25:32.960Z,76.36
2023-01-12T02:28:08.743Z,76.17
2023-01-12T02:31:03.467Z,76.18
2023-01-12T02:33:48.949Z,76.12
2023-01-12T02:36:22.437Z,76.28
2023-01-12T02:39:04.169Z,76.35
2023-01-12T02:42:02.089Z,76.19
2023-01-12T02:44:47.839Z,76.17
2023-01-12T02:47:25.876Z,76.26
2023-01-12T02:49:59.535Z,76.33
2023-01-12T02:52:29.280Z,76.18
2023-01-12T02:54:58.560Z,75.96
2023-01-12T02:57:28.551Z,76.00
2023-01-12T02:59:57.731Z,75.90
2023-01-12T03:02:25.820Z,75.96
2023-01-12T03:04:53.502Z,76.04
2023-01-12T03:07:55.988Z,75.98
2023-01-12T03:10:37.681Z,75.71
2023-01-12T03:13:10.159Z,75.55
2023-01-12T03:15:41.796Z,75.53
2023-01-12T03:18:30.508Z,75.53
2023-01-12T03:21:05.955Z,75.31
2023-01-12T03:23:42.082Z,75.13
2023-01-12T03:26:11.721Z,75.21
2023-01-12T03:28:45.877Z,75.07
2023-01-12T03:31:14.077Z,74.56
2023-01-12T03:33:43.825Z,74.57
2023-01-12T03:36:29.922Z,74.53
2023-01-12T03:39:02.773Z,74.25
2023-01-12T03:42:24.297Z,74.32
2023-01-12T03:45:30.335Z,74.29
2023-01-12T03:48:29.952Z,74.25
2023-01-12T03:51:06.714Z,74.13
2023-01-12T03:53:35.624Z,74.16
2023-01-12T03:56:09.420Z,74.25
2023-01-12T03:58:36.448Z,74.08
2023-01-12T04:01:04.874Z,74.20
2023-01-12T04:03:32.000Z,74.30
2023-01-12T04:05:59.228Z,74.31
2023-01-12T04:08:26.288Z,74.30
2023-01-12T04:10:53.257Z,74.32
2023-01-12T04:13:20.628Z,74.27
2023-01-12T04:15:48.408Z,74.25
2023-01-12T04:18:17.144Z,74.21
2023-01-12T04:20:44.277Z,73.95
2023-01-12T04:23:11.397Z,73.99
2023-01-12T04:25:38.293Z,73.88
2023-01-12T04:28:05.827Z,73.87
2023-01-12T04:30:34.024Z,73.85
2023-01-12T04:33:06.173Z,73.84
2023-01-12T04:35:33.146Z,73.85
2023-01-12T04:38:05.942Z,73.97
2023-01-12T04:40:33.239Z,73.68
2023-01-12T04:43:08.359Z,73.69
2023-01-12T04:45:38.674Z,73.66
2023-01-12T04:48:12.226Z,73.65
2023-01-12T04:50:39.633Z,73.48
2023-01-12T04:53:10.687Z,73.37
2023-01-12T04:55:40.506Z,73.31
2023-01-12T04:58:07.989Z,73.58
2023-01-12T05:00:36.062Z,73.39
2023-01-12T05:03:03.632Z,73.32
2023-01-12T05:05:33.173Z,73.09
2023-01-12T05:08:20.205Z,73.07
2023-01-12T05:10:51.558Z,73.01
2023-01-12T05:13:18.641Z,73.16
2023-01-12T05:15:45.542Z,73.33
2023-01-12T05:18:12.420Z,72.95
2023-01-12T05:20:39.333Z,73.23
2023-01-12T05:23:06.484Z,73.14
2023-01-12T05:25:33.817Z,72.88
2023-01-12T05:28:01.356Z,72.99
2023-01-12T05:30:31.822Z,72.94
2023-01-12T05:32:59.587Z,73.21
2023-01-12T05:35:27.151Z,73.17
2023-01-12T05:37:56.961Z,73.18
2023-01-12T05:40:24.014Z,73.14
2023-01-12T05:43:10.437Z,72.90
2023-01-12T05:45:37.775Z,72.92
2023-01-12T05:48:05.263Z,73.03
2023-01-12T05:50:32.318Z,73.07
2023-01-12T05:53:09.386Z,73.04
2023-01-12T05:55:40.012Z,72.97
2023-01-12T05:58:06.960Z,72.92
2023-01-12T06:00:33.962Z,73.03
2023-01-12T06:03:02.930Z,72.96
2023-01-12T06:05:30.074Z,73.06
2023-01-12T06:07:57.880Z,73.07
2023-01-12T06:10:25.616Z,72.93
2023-01-12T06:13:11.521Z,72.96
2023-01-12T06:15:38.970Z,72.82
2023-01-12T06:18:06.239Z,73.02
2023-01-12T06:20:33.301Z,73.00
2023-01-12T06:23:05.133Z,72.87
2023-01-12T06:25:32.682Z,72.69
2023-01-12T06:27:59.807Z,72.44
2023-01-12T06:30:26.749Z,72.47
2023-01-12T06:32:53.840Z,72.38
2023-01-12T06:35:20.893Z,72.36
2023-01-12T06:37:47.839Z,72.24
2023-01-12T06:40:15.631Z,72.53
2023-01-12T06:42:42.770Z,72.35
2023-01-12T06:45:10.743Z,72.55
2023-01-12T06:47:46.205Z,72.52
2023-01-12T06:50:13.359Z,72.15
2023-01-12T06:52:40.325Z,72.28
2023-01-12T06:55:07.749Z,72.21
2023-01-12T06:57:34.776Z,72.31
2023-01-12T07:00:01.955Z,72.26
2023-01-12T07:02:29.050Z,72.17
2023-01-12T07:04:56.030Z,72.04
2023-01-12T07:07:23.150Z,72.13
2023-01-12T07:09:50.660Z,72.11
2023-01-12T07:12:17.800Z,72.12
2023-01-12T07:14:44.853Z,72.13
2023-01-12T07:17:12.809Z,72.22
2023-01-12T07:19:41.460Z,72.03
2023-01-12T07:22:08.648Z,72.03
2023-01-12T07:24:35.607Z,72.11
2023-01-12T07:27:02.744Z,72.04
2023-01-12T07:29:29.590Z,72.25
2023-01-12T07:31:56.530Z,72.15
2023-01-12T07:34:23.866Z,72.11
2023-01-12T07:36:51.693Z,71.94
2023-01-12T07:39:18.755Z,71.95
2023-01-12T07:42:04.215Z,72.03
2023-01-12T07:44:31.186Z,72.14
2023-01-12T07:46:59.813Z,72.02
2023-01-12T07:49:27.130Z,72.02
2023-01-12T07:51:55.452Z,71.91
2023-01-12T07:54:23.319Z,71.64
2023-01-12T07:56:50.259Z,71.70
2023-01-12T07:59:17.909Z,71.61
2023-01-12T08:01:45.001Z,71.80
2023-01-12T08:04:12.442Z,71.78
2023-01-12T08:06:39.685Z,71.27
2023-01-12T08:09:06.733Z,71.25
2023-01-12T08:11:33.729Z,71.00
2023-01-12T08:14:01.622Z,70.97
2023-01-12T08:16:38.251Z,70.83
2023-01-12T08:19:08.762Z,70.99
2023-01-12T08:21:46.178Z,70.91
2023-01-12T08:24:17.864Z,70.83
2023-01-12T08:26:48.275Z,70.74
2023-01-12T08:29:29.988Z,70.80
2023-01-12T08:32:01.156Z,70.57
2023-01-12T08:34:30.276Z,70.62
2023-01-12T08:37:00.832Z,70.81
2023-01-12T08:39:29.697Z,70.53
2023-01-12T08:41:56.658Z,70.76
2023-01-12T08:44:23.831Z,70.72
2023-01-12T08:46:52.892Z,70.55
2023-01-12T08:49:24.549Z,70.97
2023-01-12T08:51:53.199Z,71.06
2023-01-12T08:54:21.453Z,71.32
2023-01-12T08:56:50.681Z,71.61
2023-01-12T08:59:19.371Z,71.93
2023-01-12T09:01:46.517Z,72.04
2023-01-12T09:04:14.250Z,72.48
2023-01-12T09:06:44.754Z,72.60
2023-01-12T09:09:15.725Z,72.94
2023-01-12T09:11:43.997Z,73.48
2023-01-12T09:14:12.235Z,73.63
2023-01-12T09:16:40.675Z,73.84
2023-01-12T09:19:08.433Z,74.28
2023-01-12T09:21:40.546Z,74.51
2023-01-12T09:24:08.505Z,74.68
2023-01-12T09:26:40.898Z,74.92
2023-01-12T09:29:10.025Z,75.26
2023-01-12T09:31:39.026Z,75.30
2023-01-12T09:34:06.039Z,75.45
2023-01-12T09:36:36.812Z,75.75
2023-01-12T09:39:06.173Z,76.02
2023-01-12T09:41:59.479Z,76.15
2023-01-12T09:44:54.408Z,76.00
2023-01-12T09:47:30.551Z,76.23
2023-01-12T09:50:12.184Z,76.42
2023-01-12T09:52:52.435Z,76.68
2023-01-12T09:55:25.536Z,76.77
2023-01-12T09:58:18.381Z,76.99
2023-01-12T10:00:54.387Z,76.91
2023-01-12T10:03:31.938Z,77.01
2023-01-12T10:06:02.771Z,77.15
2023-01-12T10:08:50.271Z,77.25
2023-01-12T10:11:25.778Z,77.40
2023-01-12T10:14:17.542Z,77.42
2023-01-12T10:17:06.745Z,77.87
2023-01-12T10:19:47.891Z,77.69
2023-01-12T10:22:39.832Z,78.01
2023-01-12T10:25:24.887Z,78.11
2023-01-12T10:27:55.020Z,78.13
2023-01-12T10:30:31.992Z,78.20
2023-01-12T10:33:10.613Z,78.11
2023-01-12T10:35:50.777Z,78.27
2023-01-12T10:38:29.450Z,78.46
2023-01-12T10:41:19.633Z,78.51
2023-01-12T10:44:06.466Z,78.72
2023-01-12T10:46:35.909Z,78.47
2023-01-12T10:49:23.632Z,78.50
2023-01-12T10:51:57.634Z,78.77
2023-01-12T10:54:29.305Z,78.61
2023-01-12T10:57:01.822Z,78.63
2023-01-12T10:59:32.805Z,78.59
2023-01-12T11:02:16.681Z,78.61
2023-01-12T11:04:48.644Z,78.70
2023-01-12T11:07:19.779Z,78.77
2023-01-12T11:09:49.701Z,78.76
2023-01-12T11:12:21.303Z,78.79
2023-01-12T11:14:59.022Z,78.79
2023-01-12T11:17:26.116Z,78.90
2023-01-12T11:19:56.597Z,79.08
2023-01-12T11:22:30.781Z,79.15
2023-01-12T11:25:23.473Z,79.03
2023-01-12T11:28:06.787Z,79.36
2023-01-12T11:30:44.562Z,79.22
2023-01-12T11:33:11.513Z,79.38
2023-01-12T11:35:47.794Z,79.08
2023-01-12T11:38:34.274Z,79.21
2023-01-12T11:41:04.242Z,79.12
2023-01-12T11:43:50.206Z,79.11
2023-01-12T11:46:38.454Z,79.28
2023-01-12T11:49:11.626Z,79.23
2023-01-12T11:51:39.301Z,79.37
2023-01-12T11:54:08.128Z,79.21
2023-01-12T11:56:45.917Z,79.11
2023-01-12T11:59:27.043Z,79.13
2023-01-12T12:02:26.714Z,79.33
2023-01-12T12:05:15.254Z,79.10
2023-01-12T12:07:54.436Z,79.28
2023-01-12T12:10:25.500Z,79.08
2023-01-12T12:13:07.900Z,79.09
2023-01-12T12:16:12.164Z,79.23
2023-01-12T12:18:50.852Z,79.09
2023-01-12T12:21:43.267Z,79.21
2023-01-12T12:24:25.400Z,79.46
2023-01-12T12:27:16.293Z,79.38
2023-01-12T12:30:25.519Z,79.57
2023-01-12T12:32:55.036Z,79.69
2023-01-12T12:35:35.808Z,79.74
2023-01-12T12:38:25.783Z,79.73
2023-01-12T12:41:26.417Z,79.65
2023-01-12T12:44:35.567Z,79.89
2023-01-12T12:47:24.289Z,79.71
2023-01-12T12:49:55.676Z,79.80
2023-01-12T12:52:25.472Z,79.60
2023-01-12T12:54:55.667Z,79.67
2023-01-12T12:57:22.624Z,79.66
2023-01-12T13:00:02.984Z,79.63
2023-01-12T13:02:52.927Z,79.48
2023-01-12T13:06:10.253Z,79.71
2023-01-12T13:08:38.727Z,79.81
2023-01-12T13:11:06.451Z,79.50
2023-01-12T13:13:38.426Z,79.65
2023-01-12T13:16:20.454Z,79.65
2023-01-12T13:18:50.548Z,79.39
2023-01-12T13:21:43.558Z,79.64
2023-01-12T13:24:10.573Z,79.62
2023-01-12T13:26:40.219Z,79.50
2023-01-12T13:29:29.277Z,79.53
2023-01-12T13:32:41.215Z,79.88
2023-01-12T13:35:23.789Z,79.80
2023-01-12T13:38:15.946Z,79.88
2023-01-12T13:40:42.970Z,79.64
2023-01-12T13:43:31.557Z,79.74
2023-01-12T13:46:03.499Z,79.65
2023-01-12T13:48:33.124Z,79.79
2023-01-12T13:51:11.462Z,79.79
2023-01-12T13:53:38.490Z,79.65
2023-01-12T13:56:07.793Z,79.63
2023-01-12T13:58:43.448Z,79.63
2023-01-12T14:01:27.495Z,79.66
2023-01-12T14:04:21.675Z,79.59
2023-01-12T14:07:10.553Z,79.68
2023-01-12T14:09:46.468Z,79.58
2023-01-12T14:12:44.044Z,79.90
2023-01-12T14:15:37.199Z,79.61
2023-01-12T14:18:14.405Z,79.72
2023-01-12T14:20:43.431Z,79.64
2023-01-12T14:23:30.118Z,79.45
2023-01-12T14:26:14.332Z,79.66
2023-01-12T14:28:46.962Z,79.51
2023-01-12T14:31:24.430Z,79.69
2023-01-12T14:33:54.967Z,79.88
2023-01-12T14:36:33.027Z,79.52
2023-01-12T14:39:00.709Z,79.33
2023-01-12T14:41:48.425Z,79.19
2023-01-12T14:44:43.025Z,79.24
2023-01-12T14:47:10.574Z,78.69
2023-01-12T14:49:38.490Z,78.77
2023-01-12T14:52:17.287Z,78.22
2023-01-12T14:54:44.312Z,78.47
2023-01-12T14:57:35.246Z,78.41
2023-01-12T15:00:05.010Z,78.33
2023-01-12T15:02:40.919Z,78.30
2023-01-12T15:05:10.961Z,78.50
2023-01-12T15:07:53.109Z,78.38
2023-01-12T15:10:20.271Z,78.29
2023-01-12T15:12:48.891Z,78.33
2023-01-12T15:15:18.732Z,78.17
2023-01-12T15:18:04.966Z,77.88
2023-01-12T15:20:56.589Z,77.77
2023-01-12T15:23:46.614Z,77.88
2023-01-12T15:26:13.835Z,77.75
2023-01-12T15:28:41.169Z,77.95
2023-01-12T15:31:31.337Z,77.58
2023-01-12T15:33:59.056Z,78.08
2023-01-12T15:36:26.347Z,77.64
2023-01-12T15:38:53.504Z,77.74
2023-01-12T15:41:43.556Z,77.62
2023-01-12T15:44:19.849Z,77.45
2023-01-12T15:46:47.593Z,77.59
2023-01-12T15:49:15.637Z,77.44
2023-01-12T15:51:47.285Z,77.63
2023-01-12T15:54:14.918Z,77.66
2023-01-12T15:56:45.643Z,77.61
2023-01-12T15:59:12.689Z,77.55
2023-01-12T16:01:43.325Z,77.58
2023-01-12T16:04:43.211Z,77.50
2023-01-12T16:07:11.115Z,77.54
2023-01-12T16:09:38.177Z,77.82
2023-01-12T16:12:05.486Z,77.52
2023-01-12T16:14:32.592Z,77.52
2023-01-12T16:16:59.665Z,77.46
2023-01-12T16:19:27.818Z,77.58
2023-01-12T16:21:55.299Z,77.74
2023-01-12T16:24:26.854Z,77.55
2023-01-12T16:26:54.038Z,77.82
2023-01-12T16:29:22.225Z,77.69
2023-01-12T16:31:52.793Z,77.56
2023-01-12T16:34:22.943Z,77.80
2023-01-12T16:36:49.934Z,78.06
2023-01-12T16:39:16.957Z,78.15
2023-01-12T16:41:43.991Z,77.97
2023-01-12T16:44:11.416Z,78.01
2023-01-12T16:46:41.402Z,78.13
2023-01-12T16:49:08.425Z,78.33
2023-01-12T16:51:40.033Z,78.11
2023-01-12T16:54:07.398Z,77.81
2023-01-12T16:56:37.877Z,77.66
2023-01-12T16:59:04.804Z,77.85
2023-01-12T17:01:32.128Z,77.80
2023-01-12T17:04:00.696Z,77.90
2023-01-12T17:06:30.294Z,77.68
2023-01-12T17:09:01.132Z,77.39
2023-01-12T17:11:28.302Z,77.18
2023-01-12T17:13:56.895Z,77.21
2023-01-12T17:16:26.204Z,77.36
2023-01-12T17:18:56.500Z,77.29
2023-01-12T17:21:24.742Z,77.71
2023-01-12T17:23:53.245Z,77.64
2023-01-12T17:26:20.329Z,77.51
2023-01-12T17:28:49.317Z,77.17
2023-01-12T17:31:18.784Z,77.21
2023-01-12T17:33:46.811Z,77.06
2023-01-12T17:36:14.337Z,76.96
2023-01-12T17:38:48.025Z,77.18
2023-01-12T17:41:36.093Z,77.10
2023-01-12T17:44:05.339Z,77.19
2023-01-12T17:46:32.643Z,77.03
2023-01-12T17:49:04.989Z,77.05
2023-01-12T17:51:32.239Z,77.33
2023-01-12T17:54:00.965Z,77.27
2023-01-12T17:56:31.548Z,77.32
2023-01-12T17:58:59.034Z,77.26
2023-01-12T18:01:29.439Z,77.22
2023-01-12T18:03:58.027Z,77.07
2023-01-12T18:06:26.736Z,77.00
2023-01-12T18:09:01.986Z,76.80
2023-01-12T18:11:31.352Z,76.51
2023-01-12T18:13:59.577Z,76.63
2023-01-12T18:16:27.322Z,76.23
2023-01-12T18:18:55.191Z,76.67
2023-01-12T18:21:25.168Z,76.54
2023-01-12T18:23:53.114Z,76.38
2023-01-12T18:26:26.466Z,76.33
2023-01-12T18:28:54.538Z,76.29
2023-01-12T18:31:24.809Z,76.27
2023-01-12T18:33:57.795Z,76.42
2023-01-12T18:36:25.736Z,76.01
2023-01-12T18:38:54.285Z,75.94
2023-01-12T18:41:43.049Z,75.90
2023-01-12T18:44:10.614Z,75.76
2023-01-12T18:47:01.993Z,75.51
2023-01-12T18:49:32.058Z,75.49
2023-01-12T18:52:18.370Z,75.74
2023-01-12T18:54:48.865Z,75.55
2023-01-12T18:57:19.797Z,75.70
2023-01-12T18:59:48.103Z,75.70
2023-01-12T19:02:16.674Z,75.51
2023-01-12T19:04:47.284Z,75.18
2023-01-12T19:07:17.167Z,75.22
2023-01-12T19:09:44.197Z,74.65
2023-01-12T19:12:11.209Z,74.60
2023-01-12T19:14:56.910Z,74.58
2023-01-12T19:17:30.285Z,74.47
2023-01-12T19:20:02.312Z,74.72
2023-01-12T19:23:07.715Z,74.62
2023-01-12T19:26:12.929Z,74.61
2023-01-12T19:28:40.951Z,74.78
2023-01-12T19:31:11.225Z,74.58
2023-01-12T19:33:39.599Z,74.91
2023-01-12T19:36:14.176Z,74.90
2023-01-12T19:38:50.614Z,75.03
2023-01-12T19:41:36.147Z,75.06
2023-01-12T19:44:05.549Z,75.09
2023-01-12T19:46:33.319Z,75.34
2023-01-12T19:49:00.635Z,75.28
2023-01-12T19:51:27.705Z,75.53
2023-01-12T19:53:54.731Z,75.64
2023-01-12T19:56:23.085Z,75.63
2023-01-12T19:58:51.920Z,75.85
2023-01-12T20:01:23.779Z,75.58
2023-01-12T20:03:51.071Z,75.65
2023-01-12T20:06:18.101Z,75.72
2023-01-12T20:08:45.584Z,75.67
2023-01-12T20:11:12.755Z,75.77
2023-01-12T20:13:39.910Z,76.26
2023-01-12T20:16:09.161Z,76.37
2023-01-12T20:18:36.634Z,76.68
2023-01-12T20:21:08.798Z,77.03
2023-01-12T20:23:35.946Z,77.25
2023-01-12T20:26:07.830Z,77.25
2023-01-12T20:28:35.631Z,77.59
2023-01-12T20:31:09.093Z,77.67
2023-01-12T20:33:36.312Z,77.61
2023-01-12T20:36:03.457Z,77.65
2023-01-12T20:38:30.928Z,77.53
2023-01-12T20:40:58.228Z,77.60
2023-01-12T20:43:25.157Z,77.54
2023-01-12T20:45:52.680Z,77.66
2023-01-12T20:48:19.659Z,77.61
2023-01-12T20:50:47.195Z,77.43
2023-01-12T20:53:15.852Z,77.26
2023-01-12T20:55:49.073Z,77.25
2023-01-12T20:58:16.923Z,76.99
2023-01-12T21:00:45.297Z,77.08
2023-01-12T21:03:12.447Z,76.79
2023-01-12T21:05:44.345Z,76.83
2023-01-12T21:08:12.000Z,76.39
2023-01-12T21:10:40.960Z,76.39
2023-01-12T21:13:07.964Z,76.16
2023-01-12T21:15:34.976Z,76.37
2023-01-12T21:18:02.002Z,75.65
2023-01-12T21:20:29.087Z,75.63
2023-01-12T21:22:56.024Z,75.33
2023-01-12T21:25:26.188Z,75.37
2023-01-12T21:27:53.111Z,74.70
2023-01-12T21:30:20.226Z,74.61
2023-01-12T21:32:48.825Z,74.70
2023-01-12T21:35:16.560Z,74.49
2023-01-12T21:37:43.494Z,74.36
2023-01-12T21:40:11.742Z,74.60
2023-01-12T21:42:56.983Z,74.64
2023-01-12T21:45:25.842Z,74.30
2023-01-12T21:47:55.663Z,74.47
2023-01-12T21:50:23.078Z,74.37
2023-01-12T21:52:50.063Z,74.27
2023-01-12T21:55:19.648Z,74.18
2023-01-12T21:57:48.008Z,74.35
2023-01-12T22:00:15.852Z,74.26
2023-01-12T22:02:43.383Z,74.40
2023-01-12T22:05:12.911Z,74.39
2023-01-12T22:07:42.967Z,74.45
2023-01-12T22:10:19.854Z,74.30
2023-01-12T22:12:52.798Z,74.50
2023-01-12T22:15:20.395Z,74.54
2023-01-12T22:17:48.708Z,74.75
2023-01-12T22:20:16.729Z,74.41
2023-01-12T22:22:44.759Z,74.66
2023-01-12T22:25:14.070Z,73.98
2023-01-12T22:27:41.857Z,74.01
2023-01-12T22:30:12.985Z,74.16
2023-01-12T22:32:41.513Z,73.91
2023-01-12T22:35:10.329Z,73.42
2023-01-12T22:37:38.936Z,73.64
2023-01-12T22:40:09.098Z,73.75
2023-01-12T22:42:55.453Z,73.69
2023-01-12T22:45:22.710Z,73.92
2023-01-12T22:47:54.448Z,73.68
2023-01-12T22:50:22.170Z,73.72
2023-01-12T22:52:50.785Z,73.39
2023-01-12T22:55:17.817Z,73.55
2023-01-12T22:57:44.830Z,73.28
2023-01-12T23:00:13.161Z,73.10
2023-01-12T23:02:59.240Z,72.97
2023-01-12T23:05:36.463Z,73.45
2023-01-12T23:08:07.295Z,72.99
2023-01-12T23:10:35.204Z,73.00
2023-01-12T23:13:11.915Z,73.33
2023-01-12T23:15:39.911Z,73.56
2023-01-12T23:18:08.165Z,73.34
2023-01-12T23:20:36.514Z,73.10
2023-01-12T23:23:04.492Z,73.11
2023-01-12T23:25:33.688Z,73.47
2023-01-12T23:28:01.327Z,73.20
2023-01-12T23:30:30.891Z,73.29
2023-01-12T23:33:04.203Z,73.42
2023-01-12T23:35:37.174Z,73.04
2023-01-12T23:38:04.647Z,73.51
2023-01-12T23:40:32.014Z,73.21
2023-01-12T23:43:00.868Z,73.01
2023-01-12T23:45:28.164Z,72.90
2023-01-12T23:47:55.597Z,73.21
2023-01-12T23:50:23.000Z,73.35
2023-01-12T23:52:50.466Z,73.13
2023-01-12T23:55:18.316Z,73.12
2023-01-12T23:57:48.592Z,73.17
